Time;durP1;ratioP1;P1;durP2;ratioP2;P2;SDS_P1;SDS_P2;PMS_P1;PMS_P2;Temp;Humidity;BMP_temperature;BMP_pressure;BME280_temperature;BME280_humidity;BME280_pressure;Samples;Min_cycle;Max_cycle;Signal;HPM_P1;HPM_P2
2023/02/25 00:01:55;;;;;;;6.33;4.60;;;11.90;58.20;;;;;;5028568;28;20603;-54
2023/02/25 00:04:21;;;;;;;6.40;4.10;;;11.80;58.30;;;;;;5018499;28;20196;-52
2023/02/25 00:06:47;;;;;;;6.90;4.50;;;11.90;58.40;;;;;;5021527;28;20224;-54
2023/02/25 00:09:12;;;;;;;4.93;4.43;;;11.90;58.30;;;;;;5033757;28;20444;-55
2023/02/25 00:11:38;;;;;;;4.53;4.13;;;11.90;58.30;;;;;;5024747;28;20194;-52
2023/02/25 00:14:04;;;;;;;5.93;4.77;;;11.90;58.20;;;;;;5027811;28;20700;-54
2023/02/25 00:16:31;;;;;;;7.30;5.40;;;11.90;58.00;;;;;;5033067;28;20263;-53
2023/02/25 00:18:57;;;;;;;7.83;5.03;;;11.80;57.80;;;;;;5023204;28;20189;-53
2023/02/25 00:21:23;;;;;;;8.90;6.23;;;11.60;57.10;;;;;;5022583;28;20829;-55
2023/02/25 00:23:50;;;;;;;5.90;4.67;;;11.60;57.30;;;;;;5031195;28;20428;-53
2023/02/25 00:26:16;;;;;;;5.57;5.07;;;11.60;57.10;;;;;;5027661;28;20452;-54
2023/02/25 00:28:43;;;;;;;6.33;5.33;;;11.50;57.10;;;;;;5034542;28;20439;-53
2023/02/25 00:31:11;;;;;;;6.50;4.83;;;11.50;56.70;;;;;;5031864;28;20994;-51
2023/02/25 00:33:40;;;;;;;5.40;4.67;;;11.30;56.50;;;;;;5028434;28;20444;-54
2023/02/25 00:36:08;;;;;;;7.90;4.80;;;11.40;56.50;;;;;;5022977;28;20440;-51
2023/02/25 00:38:35;;;;;;;6.87;5.77;;;11.30;56.20;;;;;;5030370;28;20824;-52
2023/02/25 00:41:10;;;;;;;8.23;5.30;;;11.20;56.50;;;;;;5034214;28;20447;-50
2023/02/25 00:43:39;;;;;;;6.13;5.00;;;11.00;56.30;;;;;;5025280;28;20440;-54
2023/02/25 00:46:05;;;;;;;5.27;4.67;;;10.90;56.60;;;;;;5024355;28;20448;-52
2023/02/25 00:48:30;;;;;;;6.20;5.33;;;11.00;56.70;;;;;;5017146;28;20432;-52
2023/02/25 00:50:56;;;;;;;7.80;4.77;;;11.10;56.60;;;;;;5032476;28;20199;-53
2023/02/25 00:53:21;;;;;;;6.47;3.90;;;11.10;56.20;;;;;;5031111;28;20280;-51
2023/02/25 00:55:47;;;;;;;6.33;4.60;;;10.80;56.30;;;;;;5022829;28;20221;-50
2023/02/25 00:58:13;;;;;;;4.17;3.77;;;10.90;56.20;;;;;;5023325;28;20255;-51
2023/02/25 01:00:38;;;;;;;6.77;4.03;;;10.80;56.10;;;;;;5019801;28;20194;-54
2023/02/25 01:03:04;;;;;;;7.97;4.17;;;10.90;56.10;;;;;;5029558;28;20194;-50
2023/02/25 01:05:29;;;;;;;6.87;4.00;;;10.90;56.10;;;;;;5024604;28;20597;-52
2023/02/25 01:07:55;;;;;;;8.30;4.30;;;11.00;56.00;;;;;;5027706;28;20648;-51
2023/02/25 01:10:21;;;;;;;4.97;4.47;;;11.00;56.20;;;;;;5020450;28;20244;-52
2023/02/25 01:12:47;;;;;;;7.63;4.00;;;11.00;56.10;;;;;;5026620;28;20244;-52
2023/02/25 01:15:12;;;;;;;6.87;4.73;;;10.90;56.10;;;;;;5024935;28;20935;-51
2023/02/25 01:17:38;;;;;;;5.80;4.20;;;11.00;56.80;;;;;;5022687;28;20239;-50
2023/02/25 01:20:10;;;;;;;7.23;4.50;;;11.00;55.90;;;;;;5020812;28;20197;-50
2023/02/25 01:22:40;;;;;;;7.23;4.67;;;10.90;55.80;;;;;;5030592;28;20285;-51
2023/02/25 01:25:07;;;;;;;3.93;3.50;;;11.00;56.10;;;;;;5031013;28;20462;-51
2023/02/25 01:27:33;;;;;;;5.73;4.10;;;11.00;55.70;;;;;;5034409;28;20459;-50
2023/02/25 01:29:58;;;;;;;5.57;4.97;;;11.10;55.80;;;;;;5030397;28;20821;-53
2023/02/25 01:32:24;;;;;;;5.47;4.63;;;11.10;55.70;;;;;;5031777;28;20237;-51
2023/02/25 01:34:50;;;;;;;5.70;3.80;;;11.20;55.40;;;;;;5041574;28;20641;-52
2023/02/25 01:37:15;;;;;;;5.33;3.93;;;11.10;55.40;;;;;;5028151;28;20236;-50
2023/02/25 01:39:41;;;;;;;4.70;3.13;;;11.00;55.30;;;;;;5027134;28;20189;-53
2023/02/25 01:42:13;;;;;;;7.70;3.40;;;10.90;54.80;;;;;;5030398;28;20196;-50
2023/02/25 01:45:07;;;;;;;4.83;3.00;;;10.90;54.80;;;;;;5029659;28;20696;-50
2023/02/25 01:47:36;;;;;;;4.23;3.43;;;10.70;55.00;;;;;;5029394;28;20475;-50
2023/02/25 01:50:03;;;;;;;4.13;3.60;;;10.40;54.80;;;;;;5045415;28;20447;-51
2023/02/25 01:52:28;;;;;;;7.23;3.50;;;10.60;55.40;;;;;;5028518;28;20534;-50
2023/02/25 01:54:56;;;;;;;4.10;2.70;;;10.40;55.20;;;;;;5019783;28;20565;-50
2023/02/25 01:57:23;;;;;;;4.40;2.90;;;10.50;55.60;;;;;;5024822;28;20256;-51
2023/02/25 01:59:50;;;;;;;3.57;3.23;;;10.60;56.10;;;;;;5023958;28;20494;-51
2023/02/25 02:02:20;;;;;;;4.00;2.97;;;10.70;55.50;;;;;;5021798;28;20441;-50
2023/02/25 02:04:50;;;;;;;3.07;2.73;;;10.60;55.40;;;;;;5031618;28;20455;-51
2023/02/25 02:07:17;;;;;;;4.00;3.13;;;10.70;55.70;;;;;;5012353;28;20464;-50
2023/02/25 02:09:55;;;;;;;4.87;3.17;;;10.70;55.00;;;;;;5027937;28;20468;-51
2023/02/25 02:12:42;;;;;;;3.57;3.10;;;10.80;54.90;;;;;;5030909;28;20505;-51
2023/02/25 02:15:11;;;;;;;6.70;3.97;;;10.70;54.80;;;;;;5024674;28;20452;-51
2023/02/25 02:17:51;;;;;;;4.43;3.10;;;10.90;54.90;;;;;;5017764;28;20516;-50
2023/02/25 02:20:19;;;;;;;4.60;3.13;;;10.90;54.70;;;;;;5016364;28;20448;-51
2023/02/25 02:23:06;;;;;;;4.57;3.30;;;10.80;54.60;;;;;;5032806;28;21101;-50
2023/02/25 02:25:35;;;;;;;4.63;3.37;;;10.80;55.00;;;;;;5023690;28;20440;-51
2023/02/25 02:28:09;;;;;;;4.43;3.50;;;10.80;55.00;;;;;;5018836;28;21192;-51
2023/02/25 02:30:43;;;;;;;3.47;2.77;;;10.80;54.50;;;;;;5019784;28;20872;-51
2023/02/25 02:33:15;;;;;;;3.33;2.70;;;10.80;54.50;;;;;;5024267;28;20439;-53
2023/02/25 02:35:55;;;;;;;4.60;3.00;;;10.70;54.60;;;;;;5036257;28;20439;-51
2023/02/25 02:38:59;;;;;;;2.70;2.50;;;10.50;54.30;;;;;;5015291;28;21017;-51
2023/02/25 02:41:32;;;;;;;2.87;2.60;;;10.50;54.40;;;;;;5017443;28;20463;-51
2023/02/25 02:44:49;;;;;;;3.43;3.10;;;10.30;54.40;;;;;;5020748;28;20482;-53
2023/02/25 02:47:22;;;;;;;4.33;2.43;;;10.30;54.50;;;;;;4984004;28;20457;-50
2023/02/25 02:50:01;;;;;;;3.93;2.50;;;10.50;54.10;;;;;;4984857;28;20443;-50
2023/02/25 02:52:29;;;;;;;5.67;2.30;;;10.50;54.10;;;;;;5009601;28;20442;-52
2023/02/25 02:55:06;;;;;;;3.60;2.80;;;10.60;54.20;;;;;;5018518;28;20774;-52
2023/02/25 02:57:37;;;;;;;4.43;2.63;;;10.60;53.70;;;;;;5028893;28;20533;-50
2023/02/25 03:00:18;;;;;;;3.23;2.63;;;10.60;53.70;;;;;;5025711;28;20444;-52
2023/02/25 03:02:56;;;;;;;3.57;2.93;;;10.60;53.50;;;;;;5028096;28;20443;-51
2023/02/25 03:05:26;;;;;;;6.20;2.30;;;10.60;53.50;;;;;;5032592;28;20451;-52
2023/02/25 03:08:03;;;;;;;3.43;2.17;;;10.60;53.50;;;;;;5024668;28;20506;-50
2023/02/25 03:10:29;;;;;;;4.47;3.00;;;10.50;53.60;;;;;;5021416;28;20554;-53
2023/02/25 03:12:55;;;;;;;4.30;2.73;;;10.50;53.60;;;;;;5023171;28;20566;-53
2023/02/25 03:15:22;;;;;;;7.57;2.17;;;10.30;53.60;;;;;;5022937;28;20198;-50
2023/02/25 03:17:53;;;;;;;3.77;2.50;;;10.40;53.70;;;;;;5025339;28;20469;-53
2023/02/25 03:20:27;;;;;;;2.97;2.07;;;10.50;53.90;;;;;;5030343;28;20426;-54
2023/02/25 03:22:55;;;;;;;4.80;2.30;;;10.60;53.80;;;;;;5032896;28;21235;-50
2023/02/25 03:25:37;;;;;;;3.53;2.33;;;10.50;53.50;;;;;;5034133;28;20786;-50
2023/02/25 03:28:14;;;;;;;3.30;2.63;;;10.40;53.30;;;;;;5032759;28;20442;-51
2023/02/25 03:30:47;;;;;;;7.03;2.33;;;10.50;53.30;;;;;;5031452;28;20521;-50
2023/02/25 03:33:27;;;;;;;5.00;2.67;;;10.50;53.20;;;;;;5038641;28;20472;-54
2023/02/25 03:35:54;;;;;;;4.77;2.43;;;10.50;53.20;;;;;;5031924;28;20435;-50
2023/02/25 03:38:24;;;;;;;6.27;3.10;;;10.60;53.50;;;;;;5021753;28;20510;-50
2023/02/25 03:40:52;;;;;;;6.63;2.60;;;10.50;53.30;;;;;;5029310;28;20416;-52
2023/02/25 03:43:26;;;;;;;5.93;2.70;;;10.50;53.40;;;;;;5027350;28;20467;-51
2023/02/25 03:45:55;;;;;;;5.13;2.97;;;10.60;53.30;;;;;;5019599;28;20435;-50
2023/02/25 03:48:22;;;;;;;6.33;2.80;;;10.60;53.10;;;;;;5033473;28;20586;-52
2023/02/25 03:50:54;;;;;;;7.37;3.13;;;10.70;52.90;;;;;;5032552;28;20511;-53
2023/02/25 03:53:20;;;;;;;4.60;2.93;;;10.80;52.90;;;;;;5027191;28;20519;-50
2023/02/25 03:55:46;;;;;;;6.47;2.37;;;10.80;52.80;;;;;;5017855;28;20571;-52
2023/02/25 03:58:12;;;;;;;4.23;2.70;;;10.80;52.70;;;;;;5027301;28;20565;-52
2023/02/25 04:00:42;;;;;;;10.90;2.93;;;10.70;53.10;;;;;;5016790;28;20205;-50
2023/02/25 04:03:08;;;;;;;3.00;2.10;;;10.70;53.20;;;;;;5018819;28;20297;-50
2023/02/25 04:05:35;;;;;;;3.07;2.70;;;10.70;53.20;;;;;;5026632;28;20483;-52
2023/02/25 04:08:00;;;;;;;3.87;3.13;;;10.70;53.30;;;;;;5023198;28;20439;-50
2023/02/25 04:10:27;;;;;;;4.77;2.73;;;10.70;53.20;;;;;;5017251;28;20447;-51
2023/02/25 04:12:52;;;;;;;3.43;2.77;;;10.70;53.20;;;;;;5016384;28;20198;-51
2023/02/25 04:15:19;;;;;;;4.80;2.50;;;10.50;53.10;;;;;;5017131;28;20509;-53
2023/02/25 04:17:45;;;;;;;7.23;2.57;;;10.50;53.20;;;;;;5034656;28;20228;-51
2023/02/25 04:20:13;;;;;;;3.43;2.53;;;10.50;52.90;;;;;;5032323;28;20452;-54
2023/02/25 04:22:38;;;;;;;3.40;2.30;;;10.30;53.10;;;;;;5028074;28;20444;-51
2023/02/25 04:25:04;;;;;;;4.17;2.30;;;10.20;53.20;;;;;;5022677;28;20432;-50
2023/02/25 04:27:31;;;;;;;3.23;2.13;;;10.10;53.10;;;;;;5029906;28;20194;-52
2023/02/25 04:29:57;;;;;;;4.33;1.63;;;10.10;53.00;;;;;;5030593;28;20428;-50
2023/02/25 04:32:23;;;;;;;6.30;2.17;;;10.00;52.80;;;;;;5030528;28;20842;-51
2023/02/25 04:34:48;;;;;;;2.60;1.93;;;10.00;52.60;;;;;;5043560;28;20564;-50
2023/02/25 04:37:14;;;;;;;2.90;1.70;;;10.00;52.50;;;;;;5036215;28;20482;-50
2023/02/25 04:39:40;;;;;;;2.80;1.57;;;10.10;52.30;;;;;;5033134;28;20215;-50
2023/02/25 04:42:06;;;;;;;6.50;1.80;;;10.20;52.30;;;;;;5030931;28;20189;-50
2023/02/25 04:44:32;;;;;;;4.93;2.00;;;10.30;52.10;;;;;;5038065;28;20448;-52
2023/02/25 04:46:57;;;;;;;3.67;1.30;;;10.20;52.10;;;;;;5027719;28;20458;-51
2023/02/25 04:49:23;;;;;;;3.00;1.60;;;10.10;52.10;;;;;;5028430;28;20197;-50
2023/02/25 04:51:50;;;;;;;2.80;1.40;;;10.10;52.10;;;;;;5026903;28;20711;-51
2023/02/25 04:54:19;;;;;;;8.03;1.90;;;10.10;51.80;;;;;;5031471;28;20213;-51
2023/02/25 04:56:44;;;;;;;3.83;1.20;;;10.00;51.70;;;;;;5032727;28;20489;-50
2023/02/25 04:59:10;;;;;;;2.07;1.10;;;10.00;51.70;;;;;;5031176;28;20947;-50
2023/02/25 05:01:37;;;;;;;4.77;1.83;;;10.10;51.50;;;;;;5020675;28;21550;-50
2023/02/25 05:04:02;;;;;;;2.50;1.27;;;10.10;51.10;;;;;;5030284;28;20432;-51
2023/02/25 05:06:28;;;;;;;1.97;1.63;;;10.00;51.20;;;;;;5031067;28;20432;-51
2023/02/25 05:08:58;;;;;;;2.63;1.20;;;10.10;51.30;;;;;;5030671;28;20189;-50
2023/02/25 05:11:26;;;;;;;2.00;1.30;;;10.20;51.30;;;;;;5028323;28;20637;-51
2023/02/25 05:13:52;;;;;;;5.23;1.93;;;10.30;51.10;;;;;;5026657;28;20448;-51
2023/02/25 05:16:19;;;;;;;5.43;1.40;;;10.10;50.70;;;;;;5031365;28;20444;-51
2023/02/25 05:18:46;;;;;;;5.73;2.23;;;10.00;50.60;;;;;;5030794;28;20512;-51
2023/02/25 05:21:16;;;;;;;2.17;1.40;;;10.00;50.50;;;;;;5017815;28;20872;-51
2023/02/25 05:23:43;;;;;;;9.60;1.63;;;10.00;50.80;;;;;;5030842;28;20432;-51
2023/02/25 05:26:10;;;;;;;3.67;1.17;;;10.00;50.30;;;;;;5029218;28;20511;-50
2023/02/25 05:28:36;;;;;;;2.90;1.40;;;10.10;50.00;;;;;;5030601;28;20456;-51
2023/02/25 05:31:10;;;;;;;4.27;1.33;;;10.20;50.10;;;;;;5030062;28;20478;-51
2023/02/25 05:33:37;;;;;;;2.07;1.33;;;10.20;49.60;;;;;;5040867;28;20454;-51
2023/02/25 05:36:10;;;;;;;1.43;1.07;;;10.00;49.70;;;;;;5029069;28;20432;-50
2023/02/25 05:38:36;;;;;;;2.80;1.53;;;10.10;49.80;;;;;;5025070;28;20537;-51
2023/02/25 05:41:04;;;;;;;3.00;1.50;;;10.10;50.20;;;;;;5030308;28;20421;-51
2023/02/25 05:43:30;;;;;;;5.93;1.60;;;10.10;50.20;;;;;;5030382;28;20566;-51
2023/02/25 05:45:57;;;;;;;4.80;1.90;;;10.00;50.10;;;;;;5030397;28;20511;-52
2023/02/25 05:48:23;;;;;;;4.10;1.37;;;9.90;51.50;;;;;;5037500;28;20211;-51
2023/02/25 05:50:50;;;;;;;4.00;1.70;;;10.00;50.70;;;;;;5032459;28;20515;-50
2023/02/25 05:53:17;;;;;;;4.20;1.50;;;10.00;50.50;;;;;;5015264;28;20252;-50
2023/02/25 05:55:43;;;;;;;3.13;1.70;;;9.90;51.40;;;;;;5022073;28;20971;-50
2023/02/25 05:58:09;;;;;;;23.47;20.93;;;9.90;51.30;;;;;;5020408;28;20494;-51
2023/02/25 06:00:35;;;;;;;9.03;7.80;;;9.80;51.30;;;;;;5025775;28;20476;-52
2023/02/25 06:03:00;;;;;;;3.10;1.67;;;9.90;51.50;;;;;;5025053;28;20216;-51
2023/02/25 06:05:29;;;;;;;4.53;1.67;;;10.00;50.30;;;;;;5039335;28;20440;-53
2023/02/25 06:07:56;;;;;;;3.53;1.40;;;9.80;50.40;;;;;;5040686;28;20185;-51
2023/02/25 06:10:22;;;;;;;1.53;1.40;;;9.80;50.80;;;;;;5030471;28;20459;-51
2023/02/25 06:12:47;;;;;;;1.70;1.53;;;9.90;50.80;;;;;;5029704;28;20542;-51
2023/02/25 06:15:13;;;;;;;2.87;1.40;;;10.00;49.90;;;;;;5031810;28;20893;-51
2023/02/25 06:17:39;;;;;;;3.27;1.27;;;10.00;49.60;;;;;;5029203;28;20233;-55
2023/02/25 06:20:06;;;;;;;5.43;2.53;;;9.80;50.00;;;;;;5029745;28;20189;-55
2023/02/25 06:22:32;;;;;;;4.70;1.90;;;9.80;50.70;;;;;;5030371;28;20456;-55
2023/02/25 06:24:57;;;;;;;2.70;1.37;;;9.90;50.80;;;;;;5032569;28;20501;-55
2023/02/25 06:27:23;;;;;;;7.07;2.20;;;9.90;50.80;;;;;;5035952;28;20571;-55
2023/02/25 06:29:49;;;;;;;4.77;1.97;;;10.00;49.50;;;;;;5031181;28;20232;-55
2023/02/25 06:32:15;;;;;;;2.83;1.80;;;10.00;49.30;;;;;;5020085;28;20926;-56
2023/02/25 06:34:41;;;;;;;5.73;1.73;;;10.20;49.60;;;;;;5024820;28;20200;-54
2023/02/25 06:37:07;;;;;;;2.13;1.30;;;10.30;49.20;;;;;;5025070;28;20491;-55
2023/02/25 06:39:32;;;;;;;2.90;1.60;;;10.40;48.70;;;;;;5031476;28;20197;-53
2023/02/25 06:41:58;;;;;;;2.47;1.27;;;10.40;48.30;;;;;;5034529;28;20651;-55
2023/02/25 06:44:25;;;;;;;4.87;1.37;;;10.30;48.10;;;;;;5029023;28;20197;-53
2023/02/25 06:46:54;;;;;;;5.93;1.13;;;10.10;48.20;;;;;;5044752;28;20196;-55
2023/02/25 06:49:20;;;;;;;5.73;1.80;;;10.20;48.40;;;;;;5040688;28;20447;-55
2023/02/25 06:51:47;;;;;;;3.00;1.30;;;10.20;48.00;;;;;;5046180;28;20562;-54
2023/02/25 06:54:13;;;;;;;3.50;1.23;;;10.10;48.10;;;;;;5031313;28;20448;-55
2023/02/25 06:56:38;;;;;;;2.80;1.60;;;10.20;48.50;;;;;;5038689;28;20497;-55
2023/02/25 06:59:04;;;;;;;1.90;1.13;;;10.20;48.30;;;;;;5030778;28;20198;-54
2023/02/25 07:01:29;;;;;;;4.03;1.30;;;10.10;48.00;;;;;;5035516;28;20205;-55
2023/02/25 07:03:55;;;;;;;2.90;1.20;;;10.00;48.00;;;;;;5033089;28;20262;-54
2023/02/25 07:06:20;;;;;;;4.00;1.60;;;10.10;48.20;;;;;;5033263;28;20201;-55
2023/02/25 07:08:46;;;;;;;5.40;1.70;;;10.20;48.50;;;;;;5026722;28;20193;-55
2023/02/25 07:11:18;;;;;;;3.63;1.10;;;10.10;48.40;;;;;;5031232;28;20201;-54
2023/02/25 07:13:48;;;;;;;3.53;1.40;;;10.10;48.10;;;;;;5032620;28;20212;-55
2023/02/25 07:16:15;;;;;;;4.63;1.90;;;10.00;48.90;;;;;;5035735;28;20966;-55
2023/02/25 07:18:42;;;;;;;3.13;1.37;;;10.00;48.50;;;;;;5032535;28;20526;-55
2023/02/25 07:21:08;;;;;;;3.53;1.30;;;10.00;48.30;;;;;;5030178;28;20463;-53
2023/02/25 07:23:34;;;;;;;4.20;1.67;;;10.00;48.40;;;;;;5026514;28;20999;-54
2023/02/25 07:26:09;;;;;;;4.50;1.47;;;9.90;49.20;;;;;;5022643;28;20468;-55
2023/02/25 07:28:35;;;;;;;4.40;1.60;;;9.90;49.40;;;;;;5026964;28;20204;-55
2023/02/25 07:31:02;;;;;;;4.83;1.70;;;9.90;49.40;;;;;;5032077;28;20471;-55
2023/02/25 07:33:29;;;;;;;4.80;1.67;;;9.80;49.90;;;;;;5035310;28;20260;-55
2023/02/25 07:35:55;;;;;;;3.43;1.43;;;10.00;49.10;;;;;;5021660;28;20440;-55
2023/02/25 07:38:21;;;;;;;1.30;1.10;;;10.10;48.50;;;;;;5028779;28;20499;-53
2023/02/25 07:40:47;;;;;;;2.80;1.17;;;9.80;49.60;;;;;;5032175;28;20432;-54
2023/02/25 07:43:13;;;;;;;3.20;1.00;;;9.70;50.20;;;;;;5032612;28;20632;-56
2023/02/25 07:45:39;;;;;;;4.20;1.20;;;9.70;50.20;;;;;;5030967;28;20205;-56
2023/02/25 07:48:05;;;;;;;3.60;1.30;;;9.60;49.80;;;;;;5030017;28;20977;-55
2023/02/25 07:50:31;;;;;;;4.60;2.80;;;9.50;49.50;;;;;;5030271;28;20748;-56
2023/02/25 07:52:56;;;;;;;3.00;1.70;;;9.30;49.80;;;;;;5032440;28;20268;-55
2023/02/25 07:55:22;;;;;;;3.70;1.43;;;9.40;50.60;;;;;;5031100;28;20519;-55
2023/02/25 07:57:48;;;;;;;2.90;1.50;;;9.50;51.00;;;;;;5031027;28;20252;-55
2023/02/25 08:00:14;;;;;;;3.70;1.77;;;9.50;51.30;;;;;;5031742;28;20419;-55
2023/02/25 08:02:41;;;;;;;3.27;1.37;;;9.70;51.30;;;;;;5032416;28;20224;-54
2023/02/25 08:05:08;;;;;;;4.93;1.80;;;9.80;51.30;;;;;;5030796;28;20448;-57
2023/02/25 08:07:33;;;;;;;2.53;1.07;;;9.70;51.10;;;;;;5031574;28;20432;-55
2023/02/25 08:09:59;;;;;;;4.47;1.50;;;9.90;51.10;;;;;;5025459;28;20444;-56
2023/02/25 08:12:25;;;;;;;4.83;3.20;;;9.90;50.60;;;;;;5029649;28;20199;-55
2023/02/25 08:14:51;;;;;;;3.70;1.47;;;10.00;49.50;;;;;;5029535;28;20603;-55
2023/02/25 08:17:17;;;;;;;3.70;1.57;;;10.10;49.00;;;;;;5032028;28;20487;-55
2023/02/25 08:19:43;;;;;;;9.47;1.93;;;10.00;48.90;;;;;;5032408;28;20220;-56
2023/02/25 08:22:11;;;;;;;3.70;1.40;;;10.10;48.90;;;;;;5027099;28;20500;-55
2023/02/25 08:24:38;;;;;;;2.30;1.30;;;9.80;48.90;;;;;;5028627;28;20192;-55
2023/02/25 08:27:06;;;;;;;2.23;1.27;;;9.90;49.40;;;;;;5031926;28;20435;-56
2023/02/25 08:29:31;;;;;;;2.90;1.60;;;9.70;48.70;;;;;;5030685;28;20475;-55
2023/02/25 08:31:57;;;;;;;5.50;1.40;;;9.60;49.00;;;;;;5025896;28;20507;-55
2023/02/25 08:34:23;;;;;;;2.80;1.40;;;9.50;48.80;;;;;;5043450;28;20215;-55
2023/02/25 08:36:49;;;;;;;3.53;1.93;;;9.50;48.90;;;;;;5027081;28;20838;-56
2023/02/25 08:39:15;;;;;;;3.70;1.60;;;9.70;48.60;;;;;;5027670;28;20444;-56
2023/02/25 08:41:43;;;;;;;3.57;1.30;;;9.80;48.70;;;;;;5031332;28;20268;-56
2023/02/25 08:44:08;;;;;;;1.20;1.10;;;10.00;47.50;;;;;;5028052;28;20483;-57
2023/02/25 08:46:34;;;;;;;1.57;1.17;;;10.00;47.30;;;;;;5027180;28;20449;-56
2023/02/25 08:49:00;;;;;;;1.60;1.10;;;9.90;47.10;;;;;;5032464;28;20706;-56
2023/02/25 08:51:33;;;;;;;1.87;1.40;;;9.80;47.50;;;;;;5037005;28;20195;-56
2023/02/25 08:54:07;;;;;;;3.30;1.50;;;9.80;48.00;;;;;;5024420;28;20789;-56
2023/02/25 08:56:34;;;;;;;4.90;1.20;;;10.20;46.10;;;;;;5027702;28;20459;-56
2023/02/25 08:58:59;;;;;;;4.10;1.37;;;10.20;46.10;;;;;;5028651;28;20462;-56
2023/02/25 09:01:37;;;;;;;3.20;1.57;;;10.40;46.00;;;;;;5027243;28;20804;-56
2023/02/25 09:04:03;;;;;;;2.73;1.30;;;10.60;46.00;;;;;;5027227;28;20244;-56
2023/02/25 09:06:28;;;;;;;4.20;1.30;;;10.50;45.70;;;;;;5027272;28;20472;-55
2023/02/25 09:08:55;;;;;;;4.97;1.50;;;10.50;44.80;;;;;;5024188;28;20276;-56
2023/02/25 09:11:21;;;;;;;2.37;1.50;;;10.50;45.00;;;;;;5031232;28;20592;-56
2023/02/25 09:13:47;;;;;;;1.47;1.10;;;10.60;45.50;;;;;;5025057;28;20441;-56
2023/02/25 09:16:16;;;;;;;2.80;1.10;;;10.80;44.80;;;;;;5026878;28;20541;-56
2023/02/25 09:18:43;;;;;;;2.57;1.50;;;10.60;43.80;;;;;;5023807;28;20316;-57
2023/02/25 09:21:09;;;;;;;1.23;1.03;;;10.80;44.40;;;;;;5021693;28;20445;-56
2023/02/25 09:23:35;;;;;;;1.47;1.20;;;11.00;43.90;;;;;;5028788;28;20519;-56
2023/02/25 09:26:03;;;;;;;1.50;1.40;;;11.10;43.70;;;;;;5028808;28;20486;-56
2023/02/25 09:28:28;;;;;;;2.17;1.27;;;11.10;43.30;;;;;;5037634;28;20196;-56
2023/02/25 09:30:56;;;;;;;2.53;1.30;;;11.30;43.20;;;;;;5034818;28;20483;-56
2023/02/25 09:33:21;;;;;;;1.53;1.10;;;11.10;42.70;;;;;;5037605;28;20192;-57
2023/02/25 09:35:47;;;;;;;2.83;1.37;;;11.00;43.00;;;;;;5021869;28;21087;-56
2023/02/25 09:38:12;;;;;;;2.33;1.17;;;11.00;42.30;;;;;;5036895;28;20264;-56
2023/02/25 09:40:44;;;;;;;2.23;1.10;;;11.20;43.00;;;;;;5028878;28;20379;-58
2023/02/25 09:43:21;;;;;;;2.23;1.10;;;11.40;41.30;;;;;;5031869;28;20194;-57
2023/02/25 09:45:49;;;;;;;1.17;1.00;;;11.40;40.60;;;;;;5028806;28;20475;-57
2023/02/25 09:48:33;;;;;;;1.57;1.13;;;11.80;41.50;;;;;;5029569;28;20436;-57
2023/02/25 09:51:18;;;;;;;2.13;1.10;;;12.10;41.60;;;;;;5019353;28;20451;-56
2023/02/25 09:53:55;;;;;;;3.50;1.30;;;12.20;40.60;;;;;;5028841;28;20455;-57
2023/02/25 09:56:25;;;;;;;1.97;1.20;;;12.40;40.00;;;;;;5033500;28;20435;-54
2023/02/25 09:58:55;;;;;;;1.10;1.00;;;12.40;40.20;;;;;;5031513;28;21020;-57
2023/02/25 10:01:33;;;;;;;0.80;0.70;;;12.70;39.10;;;;;;5032868;28;20965;-54
2023/02/25 10:04:20;;;;;;;1.90;1.00;;;12.60;37.80;;;;;;5036564;28;20958;-51
2023/02/25 10:06:48;;;;;;;3.97;1.40;;;12.60;37.60;;;;;;5035667;28;20544;-54
2023/02/25 10:09:19;;;;;;;2.20;1.20;;;12.50;38.40;;;;;;5024520;28;20467;-54
2023/02/25 10:12:12;;;;;;;1.63;1.10;;;12.40;38.60;;;;;;5028795;28;20444;-53
2023/02/25 10:14:55;;;;;;;2.17;1.00;;;12.50;38.80;;;;;;5027243;28;20475;-53
2023/02/25 10:17:26;;;;;;;1.07;0.97;;;12.40;38.50;;;;;;5031891;28;20571;-54
2023/02/25 10:20:17;;;;;;;2.43;1.27;;;12.40;38.00;;;;;;5034702;28;20447;-53
2023/02/25 10:23:05;;;;;;;0.80;0.70;;;12.30;38.20;;;;;;5024031;28;20456;-54
2023/02/25 10:25:36;;;;;;;1.90;0.90;;;12.20;37.90;;;;;;5019531;28;20448;-54
2023/02/25 10:28:06;;;;;;;3.27;1.23;;;11.80;37.80;;;;;;5025028;28;20436;-54
2023/02/25 10:30:58;;;;;;;1.50;0.77;;;11.80;38.50;;;;;;5029228;28;20550;-52
2023/02/25 10:33:25;;;;;;;1.03;0.67;;;11.60;38.70;;;;;;5025035;28;20457;-54
2023/02/25 10:36:14;;;;;;;4.93;1.07;;;11.60;39.60;;;;;;5027551;28;20444;-50
2023/02/25 10:38:58;;;;;;;1.27;0.97;;;11.90;39.70;;;;;;5025653;28;20499;-52
2023/02/25 10:41:25;;;;;;;2.10;0.80;;;11.70;39.40;;;;;;5029992;28;20950;-50
2023/02/25 10:43:53;;;;;;;2.37;1.10;;;11.50;39.90;;;;;;5031094;28;20447;-50
2023/02/25 10:47:02;;;;;;;2.10;1.00;;;11.40;40.50;;;;;;5022707;28;20481;-52
2023/02/25 10:49:29;;;;;;;1.20;1.10;;;11.60;40.10;;;;;;5026817;28;20447;-52
2023/02/25 10:52:16;;;;;;;4.77;1.30;;;11.60;39.80;;;;;;5036406;28;20903;-49
2023/02/25 10:54:50;;;;;;;1.47;0.90;;;11.60;40.00;;;;;;5033697;28;20914;-49
2023/02/25 10:57:24;;;;;;;2.73;1.00;;;11.50;40.40;;;;;;5037757;28;21268;-53
2023/02/25 11:00:00;;;;;;;1.83;1.20;;;11.30;40.40;;;;;;5025163;28;20454;-49
2023/02/25 11:02:30;;;;;;;2.50;0.80;;;11.00;41.00;;;;;;5039514;28;20434;-50
2023/02/25 11:04:56;;;;;;;1.30;1.03;;;11.20;41.20;;;;;;5038321;28;20498;-50
2023/02/25 11:07:31;;;;;;;1.80;0.90;;;11.20;40.80;;;;;;5044562;28;20439;-49
2023/02/25 11:10:12;;;;;;;1.67;1.00;;;11.10;40.20;;;;;;5042329;28;20452;-51
2023/02/25 11:12:46;;;;;;;2.63;1.10;;;11.10;41.00;;;;;;5037868;28;20584;-49
2023/02/25 11:15:24;;;;;;;3.13;1.10;;;11.20;41.60;;;;;;5032830;28;20443;-49
2023/02/25 11:17:51;;;;;;;2.00;1.23;;;11.50;41.70;;;;;;5041153;28;20499;-50
2023/02/25 11:20:28;;;;;;;2.07;1.10;;;11.70;41.40;;;;;;5022590;28;20451;-49
2023/02/25 11:22:56;;;;;;;2.40;1.17;;;12.00;41.30;;;;;;5030554;28;20457;-50
2023/02/25 11:25:35;;;;;;;2.97;1.07;;;12.10;40.40;;;;;;5029326;28;20484;-51
2023/02/25 11:28:02;;;;;;;1.53;1.20;;;12.20;39.20;;;;;;5037352;28;20439;-49
2023/02/25 11:30:37;;;;;;;2.27;1.20;;;11.90;38.90;;;;;;5040843;28;21006;-50
2023/02/25 11:33:09;;;;;;;3.50;2.03;;;11.80;39.80;;;;;;5032830;28;20447;-53
2023/02/25 11:35:37;;;;;;;2.00;1.40;;;11.80;40.60;;;;;;5031274;28;20454;-49
2023/02/25 11:38:25;;;;;;;2.13;1.30;;;11.70;40.30;;;;;;5034841;28;20495;-50
2023/02/25 11:40:51;;;;;;;1.67;1.20;;;11.50;40.90;;;;;;5035785;28;20448;-50
2023/02/25 11:43:22;;;;;;;4.27;1.57;;;11.50;41.70;;;;;;5042075;28;20951;-50
2023/02/25 11:45:50;;;;;;;1.60;1.30;;;11.70;41.80;;;;;;5038744;28;20737;-52
2023/02/25 11:48:22;;;;;;;3.37;1.70;;;11.80;41.30;;;;;;5042966;28;20450;-51
2023/02/25 11:51:20;;;;;;;4.33;1.20;;;11.60;41.50;;;;;;5039396;28;20456;-50
2023/02/25 11:54:13;;;;;;;6.70;2.13;;;11.20;42.20;;;;;;5027957;28;20448;-53
2023/02/25 11:56:55;;;;;;;1.57;1.47;;;10.90;42.70;;;;;;5026420;28;20567;-52
2023/02/25 12:00:02;;;;;;;3.10;1.40;;;11.00;43.10;;;;;;5032895;28;20469;-52
2023/02/25 12:03:05;;;;;;;2.40;1.50;;;11.20;42.90;;;;;;5026042;28;20463;-49
2023/02/25 12:05:50;;;;;;;2.07;1.47;;;11.20;43.00;;;;;;5035742;28;20463;-51
2023/02/25 12:08:22;;;;;;;5.73;1.40;;;11.20;43.00;;;;;;5034369;28;20458;-50
2023/02/25 12:11:06;;;;;;;2.13;1.50;;;11.30;43.10;;;;;;5035948;28;20447;-49
2023/02/25 12:13:48;;;;;;;3.30;1.90;;;11.60;42.90;;;;;;5035232;28;20558;-51
2023/02/25 12:16:50;;;;;;;2.17;1.50;;;11.80;42.40;;;;;;5034817;28;20459;-51
2023/02/25 12:19:37;;;;;;;2.20;1.67;;;11.70;42.20;;;;;;5039675;28;20964;-50
2023/02/25 12:22:03;;;;;;;2.93;1.43;;;11.70;42.00;;;;;;5020702;28;20527;-50
2023/02/25 12:25:04;;;;;;;3.00;1.60;;;11.80;42.30;;;;;;5040757;28;20934;-49
2023/02/25 12:28:06;;;;;;;4.43;2.00;;;11.70;42.50;;;;;;5001264;28;20285;-49
2023/02/25 12:31:06;;;;;;;3.20;2.20;;;11.80;42.70;;;;;;5029355;28;20537;-50
2023/02/25 12:33:56;;;;;;;3.63;1.70;;;11.80;42.70;;;;;;5035505;28;20448;-50
2023/02/25 12:36:30;;;;;;;2.77;2.10;;;11.50;42.90;;;;;;5032100;28;20957;-49
2023/02/25 12:39:20;;;;;;;3.03;1.57;;;11.20;44.00;;;;;;5031067;28;20877;-49
2023/02/25 12:41:56;;;;;;;3.47;1.50;;;11.10;45.10;;;;;;5024759;28;20452;-53
2023/02/25 12:44:57;;;;;;;5.43;1.40;;;11.10;46.90;;;;;;5025933;28;20452;-49
2023/02/25 12:47:25;;;;;;;3.53;1.23;;;11.00;47.20;;;;;;5031276;28;20468;-49
2023/02/25 12:50:19;;;;;;;2.10;1.30;;;11.00;46.80;;;;;;5031077;28;20936;-49
2023/02/25 12:52:59;;;;;;;2.30;1.20;;;10.80;46.60;;;;;;5027628;28;20457;-49
2023/02/25 12:55:40;;;;;;;2.93;1.10;;;10.80;46.60;;;;;;5022643;28;20456;-51
2023/02/25 12:58:29;;;;;;;3.27;1.20;;;10.80;46.90;;;;;;5025044;28;20491;-49
2023/02/25 13:01:20;;;;;;;5.80;1.50;;;11.00;47.40;;;;;;5023338;28;20581;-49
2023/02/25 13:04:13;;;;;;;2.10;1.00;;;10.90;47.60;;;;;;5032465;28;20455;-49
2023/02/25 13:06:39;;;;;;;1.57;1.47;;;10.80;47.20;;;;;;5027471;28;20472;-52
2023/02/25 13:09:08;;;;;;;2.60;1.50;;;10.90;47.40;;;;;;5030696;28;21276;-49